< < Back
Terminal Aerodrome Forecast


Current Version              Previous Versions:   1  2  3  4  5  6  7  8  9  

Terminal Aerodrome Forecast

874
FTUS44 KBMX 010500
TAFBHM
TAF
KBHM 010527Z 0106/0206 02006KT P6SM SCT050 BKN100
     FM011500 01006KT P6SM BKN150=



Latest METAR

847
SAUS70 KWBC 010900 RRV
MTRBHM
METAR KBHM 010853Z 05004KT 10SM BKN150 21/18 A3003 RMK AO2 SLP162
T02110183 58009


USA.gov is the U.S. government's official web portal to all federal, state and local government web resources and services.